Neptune — T2ZG4 — position and weather

sailwx.info

Track history (hours):
 
Tides and Currents Weather Stations Pressure Air Temp Water Temp Dewpoint Dewpoint Depression Visibility Wind Speed Wind Dir Waves Ship Positions

Neptune

Last reported at 2018-Apr-25 15:53 UTC. Time now 2018-Apr-25 16:19 UTC.
Position N 30°04' W 094°03'.

Length 180 m; draft 7 m.

Type: Ship. MMSI: 572912210.

Date/timePositionNaut miles runAvg speedWind from/ knotsBaromVisibWave heightAir tempDewpointWater temp
2018-Apr-25 15:53N 30°04' W 094°03'0 0.0
2018-Apr-25 15:30N 30°04' W 094°03'0 0.0
2018-Apr-25 15:00N 30°04' W 094°03'0 0.0
2018-Apr-25 14:30N 30°04' W 094°03'0 0.0
2018-Apr-25 14:00N 30°04' W 094°03'0 0.0
2018-Apr-25 13:30N 30°04' W 094°03'0 0.0
2018-Apr-25 12:56N 30°04' W 094°03'0 0.0
2018-Apr-25 12:29N 30°04' W 094°03'0 0.0
2018-Apr-25 12:00N 30°04' W 094°03'0 0.0
2018-Apr-25 11:30N 30°04' W 094°03'0 0.0
2018-Apr-25 11:00N 30°04' W 094°03'0 0.0
2018-Apr-25 10:23N 30°04' W 094°03'0 0.0
2018-Apr-25 09:59N 30°04' W 094°03'0 0.0
2018-Apr-25 09:30N 30°04' W 094°03'0 0.0
2018-Apr-25 08:59N 30°04' W 094°03'0 0.0
2018-Apr-25 08:27N 30°04' W 094°03'0 0.0
2018-Apr-25 08:00N 30°04' W 094°03'0 0.0
2018-Apr-25 07:30N 30°04' W 094°03'0 0.0
2018-Apr-25 06:59N 30°04' W 094°03'0 0.0
2018-Apr-25 06:29N 30°04' W 094°03'0 0.0
2018-Apr-25 05:56N 30°04' W 094°03'0 0.0
2018-Apr-25 05:29N 30°04' W 094°03'0 0.0
2018-Apr-25 05:00N 30°04' W 094°03'0 0.0
2018-Apr-25 04:24N 30°04' W 094°03'0 0.0
2018-Apr-25 03:59N 30°04' W 094°03'0 0.0
2018-Apr-25 03:29N 30°04' W 094°03'0 0.0
2018-Apr-25 02:59N 30°04' W 094°03'0 0.0
2018-Apr-25 02:30N 30°04' W 094°03'0 0.0
2018-Apr-25 02:00N 30°04' W 094°03'0 0.0
2018-Apr-25 01:29N 30°04' W 094°03'0 0.0
2018-Apr-25 00:59N 30°04' W 094°03'0 0.0
2018-Apr-25 00:29N 30°04' W 094°03'0 0.0
2018-Apr-24 23:59N 30°04' W 094°03'0 0.0
2018-Apr-24 23:27N 30°04' W 094°03'0 0.0
2018-Apr-24 23:00N 30°04' W 094°03'0 0.0
2018-Apr-24 22:29N 30°04' W 094°03'0 0.0
2018-Apr-24 22:00N 30°04' W 094°03'0 0.0
2018-Apr-24 21:29N 30°04' W 094°03'0 0.0
2018-Apr-24 21:00N 30°04' W 094°03'0 0.0
2018-Apr-24 20:29N 30°04' W 094°03'0 0.0
2018-Apr-24 20:00N 30°04' W 094°03'0 0.9
2018-Apr-24 19:30N 30°04' W 094°03'3 5.5
2018-Apr-24 19:00N 30°01' W 094°02'3 6.9
2018-Apr-24 18:30N 30°01' W 093°58'5 9.0
2018-Apr-24 18:00N 29°59' W 093°53'3 6.5
2018-Apr-24 17:30N 29°56' W 093°52'510.0
2018-Apr-24 17:00N 29°52' W 093°56'4 8.2
2018-Apr-24 16:30N 29°48' W 093°57'510.3
2018-Apr-24 16:00N 29°45' W 093°53'611.6
2018-Apr-24 15:30N 29°39' W 093°50'611.0
2018-Apr-24 15:00N 29°35' W 093°46'5 9.1
2018-Apr-24 14:30N 29°33' W 093°41'0 0.7
2018-Apr-24 14:00N 29°34' W 093°41'0 0.2
2018-Apr-24 13:30N 29°33' W 093°41'0 0.3
2018-Apr-24 13:00N 29°33' W 093°41'0 0.6
2018-Apr-24 12:30N 29°33' W 093°41'1 2.2
2018-Apr-24 11:59N 29°32' W 093°42'1 2.4
2018-Apr-24 11:30N 29°32' W 093°44'2 4.0
2018-Apr-24 11:00N 29°31' W 093°45'3 5.5
2018-Apr-24 10:30N 29°30' W 093°48'3 6.3
2018-Apr-24 10:00N 29°29' W 093°52'3 6.4
2018-Apr-24 09:30N 29°29' W 093°55'4 8.1
2018-Apr-24 09:00N 29°27' W 093°60'4 7.5
2018-Apr-24 08:30N 29°24' W 094°03'3 6.0
2018-Apr-24 08:00N 29°22' W 094°05'11 8.1
2018-Apr-24 06:39N 29°15' W 094°14'2 8.2
2018-Apr-24 06:28N 29°14' W 094°16'5 8.3
2018-Apr-24 05:49N 29°10' W 094°20'33 8.0
2018-Apr-24 01:42N 29°29' W 094°51'313.4
2018-Apr-24 01:30N 29°31' W 094°53'613.0
2018-Apr-24 01:00N 29°36' W 094°57'612.2
2018-Apr-24 00:30N 29°42' W 094°60'5 9.8
2018-Apr-24 00:00N 29°45' W 095°04'4 7.5
2018-Apr-23 23:30N 29°44' W 095°08'4 5.8
2018-Apr-23 22:46N 29°43' W 095°13'3 0.1
2018-Apr-22 13:06N 29°44' W 095°17'  
2018-Apr-18 09:42N 29°44' W 095°17'0 0.0
2018-Apr-18 07:06N 29°44' W 095°17'0 0.0
2018-Apr-18 06:59N 29°44' W 095°17'0 0.0
2018-Apr-18 04:21N 29°44' W 095°17'0 0.0
2018-Apr-18 03:17N 29°44' W 095°17'0 0.0
2018-Apr-18 02:51N 29°44' W 095°17'0 0.4
2018-Apr-18 01:52N 29°44' W 095°17'4 4.0
2018-Apr-18 00:59N 29°44' W 095°12'3 5.8
2018-Apr-18 00:29N 29°44' W 095°09'3 6.2
2018-Apr-17 23:58N 29°45' W 095°06'3 6.3
2018-Apr-17 23:30N 29°44' W 095°03'4 7.9
2018-Apr-17 23:00N 29°41' W 094°59'611.1
2018-Apr-17 22:30N 29°36' W 094°57'612.7
2018-Apr-17 22:01N 29°31' W 094°53'612.8
2018-Apr-17 21:30N 29°25' W 094°50'811.1
2018-Apr-17 20:47N 29°21' W 094°42'412.4
2018-Apr-17 20:27N 29°19' W 094°38'2410.6
2018-Apr-17 18:08N 29°05' W 094°15'213.6
2018-Apr-17 17:57N 29°03' W 094°13'713.4
2018-Apr-17 17:24N 28°59' W 094°05'613.4
2018-Apr-17 16:59N 28°56' W 094°00'613.5
2018-Apr-17 16:30N 28°52' W 093°54'1013.8
2018-Apr-17 15:45N 28°46' W 093°45'413.9
2018-Apr-17 15:29N 28°44' W 093°41'713.9
2018-Apr-17 14:57N 28°40' W 093°34'  
Track history (hours):
 
Tides and Currents Weather Stations Pressure Air Temp Water Temp Dewpoint Dewpoint Depression Visibility Wind Speed Wind Dir Waves Ship Positions

Neptune

Last reported at 2018-Apr-25 15:53 UTC. Time now 2018-Apr-25 16:19 UTC.
Position N 30°04' W 094°03'.

Length 180 m; draft 7 m.

Type: Ship. MMSI: 572912210.

Date/timePositionNaut miles runAvg speedWind from/ knotsBaromVisibWave heightAir tempDewpointWater temp
2018-Apr-25 15:53N 30°04' W 094°03'0 0.0
2018-Apr-25 15:30N 30°04' W 094°03'0 0.0
2018-Apr-25 15:00N 30°04' W 094°03'0 0.0
2018-Apr-25 14:30N 30°04' W 094°03'0 0.0
2018-Apr-25 14:00N 30°04' W 094°03'0 0.0
2018-Apr-25 13:30N 30°04' W 094°03'0 0.0
2018-Apr-25 12:56N 30°04' W 094°03'0 0.0
2018-Apr-25 12:29N 30°04' W 094°03'0 0.0
2018-Apr-25 12:00N 30°04' W 094°03'0 0.0
2018-Apr-25 11:30N 30°04' W 094°03'0 0.0
2018-Apr-25 11:00N 30°04' W 094°03'0 0.0
2018-Apr-25 10:23N 30°04' W 094°03'0 0.0
2018-Apr-25 09:59N 30°04' W 094°03'0 0.0
2018-Apr-25 09:30N 30°04' W 094°03'0 0.0
2018-Apr-25 08:59N 30°04' W 094°03'0 0.0
2018-Apr-25 08:27N 30°04' W 094°03'0 0.0
2018-Apr-25 08:00N 30°04' W 094°03'0 0.0
2018-Apr-25 07:30N 30°04' W 094°03'0 0.0
2018-Apr-25 06:59N 30°04' W 094°03'0 0.0
2018-Apr-25 06:29N 30°04' W 094°03'0 0.0
2018-Apr-25 05:56N 30°04' W 094°03'0 0.0
2018-Apr-25 05:29N 30°04' W 094°03'0 0.0
2018-Apr-25 05:00N 30°04' W 094°03'0 0.0
2018-Apr-25 04:24N 30°04' W 094°03'0 0.0
2018-Apr-25 03:59N 30°04' W 094°03'0 0.0
2018-Apr-25 03:29N 30°04' W 094°03'0 0.0
2018-Apr-25 02:59N 30°04' W 094°03'0 0.0
2018-Apr-25 02:30N 30°04' W 094°03'0 0.0
2018-Apr-25 02:00N 30°04' W 094°03'0 0.0
2018-Apr-25 01:29N 30°04' W 094°03'0 0.0
2018-Apr-25 00:59N 30°04' W 094°03'0 0.0
2018-Apr-25 00:29N 30°04' W 094°03'0 0.0
2018-Apr-24 23:59N 30°04' W 094°03'0 0.0
2018-Apr-24 23:27N 30°04' W 094°03'0 0.0
2018-Apr-24 23:00N 30°04' W 094°03'0 0.0
2018-Apr-24 22:29N 30°04' W 094°03'0 0.0
2018-Apr-24 22:00N 30°04' W 094°03'0 0.0
2018-Apr-24 21:29N 30°04' W 094°03'0 0.0
2018-Apr-24 21:00N 30°04' W 094°03'0 0.0
2018-Apr-24 20:29N 30°04' W 094°03'0 0.0
2018-Apr-24 20:00N 30°04' W 094°03'0 0.9
2018-Apr-24 19:30N 30°04' W 094°03'3 5.5
2018-Apr-24 19:00N 30°01' W 094°02'3 6.9
2018-Apr-24 18:30N 30°01' W 093°58'5 9.0
2018-Apr-24 18:00N 29°59' W 093°53'3 6.5
2018-Apr-24 17:30N 29°56' W 093°52'510.0
2018-Apr-24 17:00N 29°52' W 093°56'4 8.2
2018-Apr-24 16:30N 29°48' W 093°57'510.3
2018-Apr-24 16:00N 29°45' W 093°53'611.6
2018-Apr-24 15:30N 29°39' W 093°50'611.0
2018-Apr-24 15:00N 29°35' W 093°46'5 9.1
2018-Apr-24 14:30N 29°33' W 093°41'0 0.7
2018-Apr-24 14:00N 29°34' W 093°41'0 0.2
2018-Apr-24 13:30N 29°33' W 093°41'0 0.3
2018-Apr-24 13:00N 29°33' W 093°41'0 0.6
2018-Apr-24 12:30N 29°33' W 093°41'1 2.2
2018-Apr-24 11:59N 29°32' W 093°42'1 2.4
2018-Apr-24 11:30N 29°32' W 093°44'2 4.0
2018-Apr-24 11:00N 29°31' W 093°45'3 5.5
2018-Apr-24 10:30N 29°30' W 093°48'3 6.3
2018-Apr-24 10:00N 29°29' W 093°52'3 6.4
2018-Apr-24 09:30N 29°29' W 093°55'4 8.1
2018-Apr-24 09:00N 29°27' W 093°60'4 7.5
2018-Apr-24 08:30N 29°24' W 094°03'3 6.0
2018-Apr-24 08:00N 29°22' W 094°05'11 8.1
2018-Apr-24 06:39N 29°15' W 094°14'2 8.2
2018-Apr-24 06:28N 29°14' W 094°16'5 8.3
2018-Apr-24 05:49N 29°10' W 094°20'33 8.0
2018-Apr-24 01:42N 29°29' W 094°51'313.4
2018-Apr-24 01:30N 29°31' W 094°53'613.0
2018-Apr-24 01:00N 29°36' W 094°57'612.2
2018-Apr-24 00:30N 29°42' W 094°60'5 9.8
2018-Apr-24 00:00N 29°45' W 095°04'4 7.5
2018-Apr-23 23:30N 29°44' W 095°08'4 5.8
2018-Apr-23 22:46N 29°43' W 095°13'3 0.1
2018-Apr-22 13:06N 29°44' W 095°17'  
2018-Apr-18 09:42N 29°44' W 095°17'0 0.0
2018-Apr-18 07:06N 29°44' W 095°17'0 0.0
2018-Apr-18 06:59N 29°44' W 095°17'0 0.0
2018-Apr-18 04:21N 29°44' W 095°17'0 0.0
2018-Apr-18 03:17N 29°44' W 095°17'0 0.0
2018-Apr-18 02:51N 29°44' W 095°17'0 0.4
2018-Apr-18 01:52N 29°44' W 095°17'4 4.0
2018-Apr-18 00:59N 29°44' W 095°12'3 5.8
2018-Apr-18 00:29N 29°44' W 095°09'3 6.2
2018-Apr-17 23:58N 29°45' W 095°06'3 6.3
2018-Apr-17 23:30N 29°44' W 095°03'4 7.9
2018-Apr-17 23:00N 29°41' W 094°59'611.1
2018-Apr-17 22:30N 29°36' W 094°57'612.7
2018-Apr-17 22:01N 29°31' W 094°53'612.8
2018-Apr-17 21:30N 29°25' W 094°50'811.1
2018-Apr-17 20:47N 29°21' W 094°42'412.4
2018-Apr-17 20:27N 29°19' W 094°38'2410.6
2018-Apr-17 18:08N 29°05' W 094°15'213.6
2018-Apr-17 17:57N 29°03' W 094°13'713.4
2018-Apr-17 17:24N 28°59' W 094°05'613.4
2018-Apr-17 16:59N 28°56' W 094°00'613.5
2018-Apr-17 16:30N 28°52' W 093°54'1013.8
2018-Apr-17 15:45N 28°46' W 093°45'413.9
2018-Apr-17 15:29N 28°44' W 093°41'713.9
2018-Apr-17 14:57N 28°40' W 093°34'  

Dump ship's entire track history